Time;durP1;ratioP1;P1;durP2;ratioP2;P2;SDS_P1;SDS_P2;PMS_P1;PMS_P2;Temp;Humidity;BMP_temperature;BMP_pressure;BME280_temperature;BME280_humidity;BME280_pressure;Samples;Min_cycle;Max_cycle;Signal;HPM_P1;HPM_P2
2023/09/25 00:00:52;;;;;;;2.60;2.20;;;13.40;99.90;;;;;;5053890;28;20176;-52
2023/09/25 00:03:18;;;;;;;3.55;2.25;;;13.40;99.90;;;;;;5053954;28;20183;-53
2023/09/25 00:05:46;;;;;;;3.08;2.28;;;13.40;99.90;;;;;;5053134;28;20171;-53
2023/09/25 00:08:12;;;;;;;3.13;2.13;;;13.40;99.90;;;;;;5053726;28;20171;-51
2023/09/25 00:10:40;;;;;;;3.58;2.15;;;13.40;99.90;;;;;;5053735;28;20616;-53
2023/09/25 00:13:06;;;;;;;2.85;1.83;;;13.30;99.90;;;;;;5053248;28;20214;-49
2023/09/25 00:15:31;;;;;;;2.17;1.65;;;13.40;99.90;;;;;;5053680;28;20175;-52
2023/09/25 00:17:57;;;;;;;2.88;2.28;;;13.40;99.90;;;;;;5053585;28;20221;-51
2023/09/25 00:20:24;;;;;;;2.63;2.10;;;13.30;99.90;;;;;;5053198;28;20230;-51
2023/09/25 00:22:50;;;;;;;3.90;2.15;;;13.30;99.90;;;;;;5053546;28;20179;-51
2023/09/25 00:25:18;;;;;;;2.55;1.83;;;13.40;99.90;;;;;;5053517;28;20258;-53
2023/09/25 00:27:44;;;;;;;3.20;2.38;;;13.30;99.90;;;;;;5053492;28;20187;-53
2023/09/25 00:30:11;;;;;;;3.00;2.30;;;13.40;99.90;;;;;;5053176;28;20875;-53
2023/09/25 00:32:37;;;;;;;2.83;2.20;;;13.30;99.90;;;;;;5053359;28;20191;-49
2023/09/25 00:35:06;;;;;;;4.03;2.10;;;13.30;99.90;;;;;;5053392;28;20506;-53
2023/09/25 00:37:32;;;;;;;2.28;1.90;;;13.40;99.90;;;;;;5053347;28;20187;-50
2023/09/25 00:39:59;;;;;;;2.88;2.10;;;13.30;99.90;;;;;;5053419;28;20171;-53
2023/09/25 00:42:26;;;;;;;3.97;2.22;;;13.40;99.90;;;;;;5053269;28;20274;-52
2023/09/25 00:44:52;;;;;;;3.67;2.15;;;13.40;99.90;;;;;;5053247;28;20175;-52
2023/09/25 00:47:18;;;;;;;2.72;1.90;;;13.50;99.90;;;;;;5053323;28;20254;-52
2023/09/25 00:49:46;;;;;;;2.85;2.17;;;13.50;99.90;;;;;;5052791;28;20180;-50
2023/09/25 00:52:12;;;;;;;3.50;2.10;;;13.40;99.90;;;;;;5053145;28;20207;-53
2023/09/25 00:54:38;;;;;;;3.25;1.77;;;13.50;99.90;;;;;;5053250;28;20211;-50
2023/09/25 00:57:05;;;;;;;1.70;1.50;;;13.50;99.90;;;;;;5053235;28;20175;-50
2023/09/25 00:59:32;;;;;;;2.85;1.85;;;13.50;99.90;;;;;;5053229;28;20628;-51
2023/09/25 01:01:58;;;;;;;2.97;1.80;;;13.60;99.90;;;;;;5053149;28;20238;-52
2023/09/25 01:04:24;;;;;;;3.00;2.00;;;13.60;99.90;;;;;;5051869;28;20652;-48
2023/09/25 01:06:51;;;;;;;3.83;2.13;;;13.70;99.90;;;;;;5051981;28;20624;-49
2023/09/25 01:09:17;;;;;;;2.63;1.90;;;13.70;99.90;;;;;;5053097;28;20267;-49
2023/09/25 01:11:42;;;;;;;3.42;2.10;;;13.70;99.90;;;;;;5052964;28;20739;-51
2023/09/25 01:14:09;;;;;;;2.47;1.95;;;13.70;99.90;;;;;;5053097;28;20183;-51
2023/09/25 01:16:36;;;;;;;3.53;2.00;;;13.70;99.90;;;;;;5053003;28;20258;-50
2023/09/25 01:19:06;;;;;;;2.20;1.85;;;13.60;99.90;;;;;;5056665;28;20536;-52
2023/09/25 01:21:35;;;;;;;2.78;1.88;;;13.70;99.90;;;;;;5056864;28;20257;-49
2023/09/25 01:24:02;;;;;;;3.20;1.80;;;13.70;99.90;;;;;;5055636;28;20171;-51
2023/09/25 01:26:28;;;;;;;3.58;2.20;;;13.70;99.90;;;;;;5057114;28;20199;-52
2023/09/25 01:28:54;;;;;;;2.83;2.25;;;13.70;99.90;;;;;;5056753;28;20207;-50
2023/09/25 01:31:20;;;;;;;3.78;1.88;;;13.70;99.90;;;;;;5056630;28;20214;-51
2023/09/25 01:33:45;;;;;;;3.35;2.35;;;13.60;99.90;;;;;;5056675;28;20620;-50
2023/09/25 01:36:11;;;;;;;3.47;2.30;;;13.50;99.90;;;;;;5056639;28;20199;-52
2023/09/25 01:38:37;;;;;;;4.18;2.13;;;13.50;99.90;;;;;;5056191;28;20179;-51
2023/09/25 01:41:04;;;;;;;4.53;2.22;;;13.60;99.90;;;;;;5056544;28;20316;-54
2023/09/25 01:43:29;;;;;;;4.13;2.28;;;13.40;99.90;;;;;;5056478;28;20317;-53
2023/09/25 01:45:55;;;;;;;3.47;2.42;;;13.50;99.90;;;;;;5056448;28;20626;-53
2023/09/25 01:48:21;;;;;;;4.55;2.50;;;13.50;99.90;;;;;;5056050;28;20181;-49
2023/09/25 01:50:46;;;;;;;3.83;2.53;;;13.40;99.90;;;;;;5056344;28;20171;-50
2023/09/25 01:53:12;;;;;;;4.05;2.40;;;13.40;99.90;;;;;;5056205;28;20690;-54
2023/09/25 01:55:40;;;;;;;4.07;2.60;;;13.30;99.90;;;;;;5056263;28;20547;-51
2023/09/25 01:58:09;;;;;;;3.20;2.50;;;13.20;99.90;;;;;;5056119;28;20190;-52
2023/09/25 02:00:35;;;;;;;3.47;2.22;;;13.30;99.90;;;;;;5056128;28;20188;-53
2023/09/25 02:03:01;;;;;;;4.40;2.60;;;13.40;99.90;;;;;;5055804;28;20633;-49
2023/09/25 02:05:27;;;;;;;3.65;2.85;;;13.30;99.90;;;;;;5055734;28;20181;-52
2023/09/25 02:07:53;;;;;;;3.85;2.67;;;13.30;99.90;;;;;;5055710;28;20167;-50
2023/09/25 02:10:19;;;;;;;3.83;3.10;;;13.30;99.90;;;;;;5056283;28;20175;-52
2023/09/25 02:12:44;;;;;;;4.82;2.92;;;13.30;99.90;;;;;;5055870;28;20714;-51
2023/09/25 02:15:10;;;;;;;4.90;2.95;;;13.30;99.90;;;;;;5056187;28;20210;-49
2023/09/25 02:17:36;;;;;;;3.63;2.72;;;13.30;99.90;;;;;;5055577;28;20175;-53
2023/09/25 02:20:22;;;;;;;5.07;3.05;;;13.40;99.90;;;;;;5055870;28;20228;-53
2023/09/25 02:22:49;;;;;;;3.83;2.67;;;13.40;99.90;;;;;;5055752;28;20178;-50
2023/09/25 02:25:15;;;;;;;3.42;2.63;;;13.30;99.90;;;;;;5055640;28;20176;-53
2023/09/25 02:27:41;;;;;;;3.38;2.72;;;13.30;99.90;;;;;;5055655;28;20250;-52
2023/09/25 02:30:09;;;;;;;3.08;2.50;;;13.30;99.90;;;;;;5054895;28;20525;-53
2023/09/25 02:32:40;;;;;;;3.40;2.40;;;13.40;99.90;;;;;;5055415;28;20560;-49
2023/09/25 02:35:07;;;;;;;2.92;2.33;;;13.30;99.90;;;;;;5055479;28;20176;-50
2023/09/25 02:37:33;;;;;;;4.82;2.80;;;13.30;99.90;;;;;;5055464;28;20191;-52
2023/09/25 02:39:59;;;;;;;4.18;2.70;;;13.40;99.90;;;;;;5055166;28;20171;-51
2023/09/25 02:42:24;;;;;;;3.47;2.30;;;13.40;99.90;;;;;;5055422;28;20535;-53
2023/09/25 02:44:51;;;;;;;3.33;2.45;;;13.40;99.90;;;;;;5055330;28;20175;-52
2023/09/25 02:47:17;;;;;;;4.85;2.40;;;13.40;99.90;;;;;;5055271;28;20532;-52
2023/09/25 02:49:42;;;;;;;3.38;2.15;;;13.50;99.90;;;;;;5054120;28;20167;-54
2023/09/25 02:52:08;;;;;;;2.88;2.20;;;13.50;99.90;;;;;;5055165;28;20199;-52
2023/09/25 02:54:37;;;;;;;4.13;2.72;;;13.50;99.90;;;;;;5055212;28;20233;-53
2023/09/25 02:57:03;;;;;;;3.20;2.40;;;13.40;99.90;;;;;;5055390;28;20175;-51
2023/09/25 02:59:29;;;;;;;4.57;2.15;;;13.50;99.90;;;;;;5055072;28;20529;-53
2023/09/25 03:01:54;;;;;;;2.38;1.95;;;13.50;99.90;;;;;;5055252;28;20208;-52
2023/09/25 03:04:21;;;;;;;4.75;2.17;;;13.50;99.90;;;;;;5054940;28;20171;-53
2023/09/25 03:06:47;;;;;;;2.60;2.05;;;13.40;99.90;;;;;;5054856;28;20179;-52
2023/09/25 03:09:12;;;;;;;4.45;2.20;;;13.40;99.90;;;;;;5054898;28;20178;-52
2023/09/25 03:11:38;;;;;;;3.15;2.22;;;13.40;99.90;;;;;;5054736;28;20722;-52
2023/09/25 03:14:04;;;;;;;3.50;2.05;;;13.40;99.90;;;;;;5054768;28;20220;-52
2023/09/25 03:16:30;;;;;;;2.72;2.00;;;13.40;99.90;;;;;;5054736;28;20568;-49
2023/09/25 03:18:56;;;;;;;2.72;2.35;;;13.30;99.90;;;;;;5054659;28;20651;-53
2023/09/25 03:21:22;;;;;;;3.03;2.30;;;13.30;99.90;;;;;;5054323;28;20223;-49
2023/09/25 03:23:48;;;;;;;3.67;2.35;;;13.30;99.90;;;;;;5054566;28;20704;-53
2023/09/25 03:26:15;;;;;;;2.97;2.22;;;13.30;99.90;;;;;;5054528;28;20274;-52
2023/09/25 03:28:42;;;;;;;3.05;2.13;;;13.20;99.90;;;;;;5054444;28;20183;-51
2023/09/25 03:31:07;;;;;;;2.72;2.33;;;13.20;99.90;;;;;;5054131;28;20180;-51
2023/09/25 03:33:33;;;;;;;2.33;1.92;;;13.30;99.90;;;;;;5053995;28;20207;-53
2023/09/25 03:35:59;;;;;;;3.25;2.13;;;13.30;99.90;;;;;;5054357;28;20179;-51
2023/09/25 03:38:25;;;;;;;3.22;2.05;;;13.30;99.90;;;;;;5054341;28;20651;-51
2023/09/25 03:40:51;;;;;;;4.40;2.20;;;13.30;99.90;;;;;;5053208;28;20254;-52
2023/09/25 03:43:16;;;;;;;3.78;2.10;;;13.30;99.90;;;;;;5054256;28;20579;-52
2023/09/25 03:45:43;;;;;;;3.17;2.15;;;13.40;99.90;;;;;;5054142;28;20167;-51
2023/09/25 03:48:09;;;;;;;5.03;2.20;;;13.40;99.90;;;;;;5054148;28;20171;-51
2023/09/25 03:50:34;;;;;;;3.67;1.90;;;13.30;99.90;;;;;;5054093;28;20195;-51
2023/09/25 03:53:02;;;;;;;3.55;1.98;;;13.40;99.90;;;;;;5054235;28;20237;-52
2023/09/25 03:55:28;;;;;;;3.38;1.88;;;13.40;99.90;;;;;;5053922;28;20202;-52
2023/09/25 03:57:54;;;;;;;3.58;2.10;;;13.40;99.90;;;;;;5053633;28;20179;-48
2023/09/25 04:00:20;;;;;;;2.10;1.63;;;13.40;99.90;;;;;;5053896;28;20675;-48
2023/09/25 04:02:46;;;;;;;2.67;2.00;;;13.30;99.90;;;;;;5053953;28;20756;-53
2023/09/25 04:05:12;;;;;;;3.13;2.10;;;13.20;99.90;;;;;;5053828;28;20167;-51
2023/09/25 04:07:38;;;;;;;2.95;1.92;;;13.20;99.90;;;;;;5053812;28;20524;-53
2023/09/25 04:10:07;;;;;;;3.00;2.10;;;13.20;99.90;;;;;;5053746;28;20183;-52
2023/09/25 04:12:34;;;;;;;2.25;2.00;;;13.10;99.90;;;;;;5053603;28;20247;-49
2023/09/25 04:15:00;;;;;;;2.47;2.00;;;13.10;99.90;;;;;;5053676;28;20572;-52
2023/09/25 04:17:27;;;;;;;5.25;1.90;;;13.10;99.90;;;;;;5053665;28;20265;-52
2023/09/25 04:19:53;;;;;;;3.80;1.90;;;13.00;99.90;;;;;;5052470;28;20223;-52
2023/09/25 04:22:20;;;;;;;2.38;1.75;;;13.00;99.90;;;;;;5053166;28;20185;-52
2023/09/25 04:24:46;;;;;;;2.53;1.98;;;13.00;99.90;;;;;;5053311;28;20301;-50
2023/09/25 04:27:12;;;;;;;2.33;1.80;;;13.00;99.90;;;;;;5053497;28;20175;-52
2023/09/25 04:29:38;;;;;;;3.00;1.90;;;13.10;99.90;;;;;;5053331;28;20186;-50
2023/09/25 04:32:06;;;;;;;3.38;1.80;;;13.10;99.90;;;;;;5053037;28;20278;-49
2023/09/25 04:34:34;;;;;;;3.30;1.90;;;13.10;99.90;;;;;;5053435;28;20193;-52
2023/09/25 04:36:59;;;;;;;3.05;1.77;;;13.10;99.90;;;;;;5053424;28;20180;-52
2023/09/25 04:39:26;;;;;;;3.63;1.73;;;13.10;99.90;;;;;;5053394;28;20586;-53
2023/09/25 04:41:53;;;;;;;1.88;1.67;;;13.00;99.90;;;;;;5053309;28;20309;-52
2023/09/25 04:44:19;;;;;;;2.55;1.80;;;13.10;99.90;;;;;;5052638;28;20179;-51
2023/09/25 04:46:45;;;;;;;2.92;1.90;;;13.10;99.90;;;;;;5052143;28;20175;-53
2023/09/25 04:49:13;;;;;;;1.90;1.50;;;13.10;99.90;;;;;;5053264;28;20171;-51
2023/09/25 04:51:39;;;;;;;2.20;1.65;;;13.20;99.90;;;;;;5053213;28;20318;-51
2023/09/25 04:54:05;;;;;;;2.97;1.70;;;13.20;99.90;;;;;;5057267;28;20253;-49
2023/09/25 04:56:31;;;;;;;3.35;1.80;;;13.30;99.90;;;;;;5057294;28;20179;-51
2023/09/25 04:59:00;;;;;;;2.55;1.60;;;13.20;99.90;;;;;;5057360;28;20186;-53
2023/09/25 05:01:26;;;;;;;3.38;1.88;;;13.20;99.90;;;;;;5056812;28;20175;-51
2023/09/25 05:03:51;;;;;;;3.83;2.15;;;13.30;99.90;;;;;;5056921;28;20190;-53
2023/09/25 05:06:17;;;;;;;2.58;1.75;;;13.20;99.90;;;;;;5057003;28;20183;-51
2023/09/25 05:08:43;;;;;;;2.40;1.80;;;13.20;99.90;;;;;;5057169;28;20253;-52
2023/09/25 05:11:10;;;;;;;3.63;1.95;;;13.20;99.90;;;;;;5057089;28;20179;-53
2023/09/25 05:13:36;;;;;;;3.28;1.70;;;13.20;99.90;;;;;;5056903;28;20207;-51
2023/09/25 05:16:02;;;;;;;4.38;2.00;;;13.20;99.90;;;;;;5057175;28;20175;-53
2023/09/25 05:18:29;;;;;;;2.33;2.00;;;13.20;99.90;;;;;;5056915;28;20186;-53
2023/09/25 05:20:57;;;;;;;3.17;1.67;;;13.10;99.90;;;;;;5056470;28;20596;-53
2023/09/25 05:23:23;;;;;;;2.22;1.80;;;13.00;99.90;;;;;;5056785;28;20183;-49
2023/09/25 05:25:49;;;;;;;3.17;1.70;;;13.10;99.90;;;;;;5056999;28;20262;-49
2023/09/25 05:28:14;;;;;;;2.70;1.60;;;13.00;99.90;;;;;;5056739;28;20228;-52
2023/09/25 05:30:40;;;;;;;3.83;2.03;;;13.00;99.90;;;;;;5056728;28;20621;-52
2023/09/25 05:33:06;;;;;;;3.75;1.67;;;13.00;99.90;;;;;;5056519;28;20206;-53
2023/09/25 05:35:32;;;;;;;2.22;1.60;;;13.00;99.90;;;;;;5056542;28;20176;-53
2023/09/25 05:37:57;;;;;;;2.33;1.80;;;13.00;99.90;;;;;;5056659;28;20616;-50
2023/09/25 05:40:23;;;;;;;4.07;2.30;;;13.00;99.90;;;;;;5056277;28;20259;-51
2023/09/25 05:42:49;;;;;;;2.55;1.67;;;13.00;99.90;;;;;;5056445;28;20182;-52
2023/09/25 05:45:17;;;;;;;3.70;2.03;;;13.00;99.90;;;;;;5056451;28;20497;-53
2023/09/25 05:47:44;;;;;;;6.38;2.17;;;13.00;99.90;;;;;;5056392;28;20175;-50
2023/09/25 05:50:11;;;;;;;2.33;1.83;;;13.00;99.90;;;;;;5056405;28;20609;-53
2023/09/25 05:52:37;;;;;;;4.03;1.80;;;13.00;99.90;;;;;;5056501;28;20199;-52
2023/09/25 05:55:04;;;;;;;8.45;2.33;;;13.10;99.90;;;;;;5056260;28;20241;-52
2023/09/25 05:57:31;;;;;;;3.15;1.90;;;13.10;99.90;;;;;;5056581;28;20254;-52
2023/09/25 05:59:57;;;;;;;4.00;1.77;;;13.10;99.90;;;;;;5055928;28;20531;-51
2023/09/25 06:02:23;;;;;;;4.57;2.33;;;13.10;99.90;;;;;;5055868;28;20175;-53
2023/09/25 06:04:48;;;;;;;4.97;1.77;;;13.20;99.90;;;;;;5054891;28;20179;-52
2023/09/25 06:07:14;;;;;;;4.18;2.20;;;13.20;99.90;;;;;;5055774;28;20648;-52
2023/09/25 06:09:41;;;;;;;4.53;2.10;;;13.20;99.90;;;;;;5056068;28;20187;-52
2023/09/25 06:12:08;;;;;;;2.20;1.70;;;13.30;99.90;;;;;;5055900;28;20388;-50
2023/09/25 06:14:35;;;;;;;4.00;2.00;;;13.30;99.90;;;;;;5055515;28;20540;-53
2023/09/25 06:17:00;;;;;;;2.65;2.10;;;13.40;99.90;;;;;;5055883;28;20186;-48
2023/09/25 06:19:27;;;;;;;2.60;1.92;;;13.40;99.90;;;;;;5055928;28;20171;-53
2023/09/25 06:21:53;;;;;;;3.45;2.30;;;13.40;99.90;;;;;;5055819;28;20174;-53
2023/09/25 06:24:21;;;;;;;3.83;2.13;;;13.50;99.90;;;;;;5055729;28;20617;-50
2023/09/25 06:26:48;;;;;;;2.40;1.77;;;13.50;99.90;;;;;;5055672;28;20172;-51
2023/09/25 06:29:14;;;;;;;3.10;1.65;;;13.60;99.90;;;;;;5055403;28;20176;-50
2023/09/25 06:31:41;;;;;;;2.88;1.70;;;13.60;99.90;;;;;;5055567;28;20210;-53
2023/09/25 06:34:07;;;;;;;2.88;1.75;;;13.70;99.90;;;;;;5055575;28;20167;-52
2023/09/25 06:36:34;;;;;;;3.33;1.77;;;13.70;99.90;;;;;;5055502;28;20233;-53
2023/09/25 06:39:00;;;;;;;2.67;1.80;;;13.80;99.90;;;;;;5055521;28;20210;-50
2023/09/25 06:41:26;;;;;;;4.60;1.90;;;13.80;99.90;;;;;;5055420;28;20617;-50
2023/09/25 06:43:53;;;;;;;2.95;1.63;;;13.90;99.90;;;;;;5055384;28;20171;-51
2023/09/25 06:46:18;;;;;;;2.20;1.83;;;13.90;99.90;;;;;;5055250;28;20180;-50
2023/09/25 06:48:49;;;;;;;2.70;1.98;;;14.00;99.90;;;;;;5055254;28;20186;-52
2023/09/25 06:51:15;;;;;;;4.18;2.10;;;14.00;99.90;;;;;;5055134;28;20617;-51
2023/09/25 06:53:40;;;;;;;4.13;1.80;;;14.00;99.90;;;;;;5055113;28;20206;-50
2023/09/25 06:56:06;;;;;;;3.78;1.70;;;14.00;99.90;;;;;;5054830;28;20179;-51
2023/09/25 06:58:32;;;;;;;2.97;2.00;;;14.10;99.90;;;;;;5054210;28;20267;-51
2023/09/25 07:00:58;;;;;;;3.00;1.90;;;14.10;99.90;;;;;;5054997;28;20605;-52
2023/09/25 07:03:23;;;;;;;4.18;2.10;;;14.10;99.90;;;;;;5054651;28;20187;-48
2023/09/25 07:05:49;;;;;;;5.38;2.20;;;14.20;99.90;;;;;;5054950;28;20182;-50
2023/09/25 07:08:15;;;;;;;5.57;2.55;;;14.20;99.90;;;;;;5053717;28;20175;-51
2023/09/25 07:10:45;;;;;;;5.78;2.42;;;14.20;99.90;;;;;;5054840;28;20171;-52
2023/09/25 07:13:10;;;;;;;5.15;2.42;;;14.30;99.90;;;;;;5054716;28;20210;-53
2023/09/25 07:15:36;;;;;;;4.15;2.25;;;14.20;99.90;;;;;;5054114;28;20179;-53
2023/09/25 07:18:02;;;;;;;3.85;2.40;;;14.40;99.90;;;;;;5054671;28;20229;-53
2023/09/25 07:20:29;;;;;;;7.72;3.53;;;14.50;99.90;;;;;;5054251;28;20223;-53
2023/09/25 07:22:55;;;;;;;13.27;6.88;;;14.60;99.90;;;;;;5054262;28;20557;-53
2023/09/25 07:25:21;;;;;;;18.55;8.43;;;14.60;99.90;;;;;;5054575;28;20321;-49
2023/09/25 07:27:46;;;;;;;7.25;4.07;;;14.70;99.90;;;;;;5054520;28;20199;-52
2023/09/25 07:30:12;;;;;;;5.90;2.55;;;14.70;99.90;;;;;;5054454;28;20257;-51
2023/09/25 07:32:40;;;;;;;4.63;2.38;;;14.70;99.90;;;;;;5054343;28;20199;-52
2023/09/25 07:35:09;;;;;;;3.63;2.50;;;14.90;99.90;;;;;;5054217;28;20193;-50
2023/09/25 07:37:36;;;;;;;5.43;2.42;;;15.00;99.90;;;;;;5054264;28;20167;-53
2023/09/25 07:40:08;;;;;;;5.45;2.13;;;15.10;99.90;;;;;;5054147;28;20171;-53
2023/09/25 07:42:34;;;;;;;3.53;1.88;;;15.10;99.90;;;;;;5054156;28;20171;-50
2023/09/25 07:44:59;;;;;;;2.83;1.83;;;15.20;99.90;;;;;;5054003;28;20190;-48
2023/09/25 07:47:29;;;;;;;2.70;1.88;;;15.30;99.90;;;;;;5054037;28;20182;-52
2023/09/25 07:49:54;;;;;;;2.55;1.75;;;15.40;99.90;;;;;;5054016;28;20191;-51
2023/09/25 07:52:20;;;;;;;2.65;1.50;;;15.50;99.90;;;;;;5053638;28;20607;-48
2023/09/25 07:54:51;;;;;;;2.03;1.45;;;15.60;99.90;;;;;;5053678;28;20218;-52
2023/09/25 07:57:20;;;;;;;4.60;1.75;;;15.50;99.90;;;;;;5054009;28;20191;-50
2023/09/25 07:59:47;;;;;;;3.60;1.65;;;15.70;99.90;;;;;;5053645;28;20632;-51
2023/09/25 08:02:20;;;;;;;2.22;1.50;;;15.80;99.90;;;;;;5053838;28;20179;-51
2023/09/25 08:04:47;;;;;;;2.67;1.73;;;15.80;99.90;;;;;;5053784;28;20251;-53
2023/09/25 08:07:13;;;;;;;5.07;1.80;;;15.90;99.90;;;;;;5053758;28;20172;-52
2023/09/25 08:09:39;;;;;;;2.33;1.60;;;16.10;99.90;;;;;;5053773;28;20225;-49
2023/09/25 08:12:05;;;;;;;4.68;2.00;;;16.10;99.90;;;;;;5053644;28;20286;-51
2023/09/25 08:14:32;;;;;;;4.63;1.90;;;16.20;99.90;;;;;;5053702;28;20167;-52
2023/09/25 08:16:59;;;;;;;3.40;2.00;;;16.20;99.90;;;;;;5053655;28;20225;-51
2023/09/25 08:19:24;;;;;;;1.80;1.60;;;16.40;99.90;;;;;;5053723;28;20249;-51
2023/09/25 08:21:53;;;;;;;3.22;1.67;;;16.50;99.90;;;;;;5053273;28;20620;-49
2023/09/25 08:24:20;;;;;;;2.95;1.70;;;16.50;99.90;;;;;;5053560;28;20176;-52
2023/09/25 08:26:48;;;;;;;3.72;2.05;;;16.70;99.90;;;;;;5052859;28;20191;-52
2023/09/25 08:29:16;;;;;;;2.88;2.08;;;16.90;99.90;;;;;;5053514;28;20175;-51
2023/09/25 08:31:45;;;;;;;3.95;2.20;;;16.90;99.90;;;;;;5053107;28;20633;-52
2023/09/25 08:34:11;;;;;;;2.70;2.13;;;17.00;99.90;;;;;;5053356;28;20306;-53
2023/09/25 08:36:38;;;;;;;3.58;2.10;;;17.10;99.90;;;;;;5053373;28;20225;-50
2023/09/25 08:39:04;;;;;;;4.35;2.22;;;17.10;99.90;;;;;;5053318;28;20190;-50
2023/09/25 08:41:31;;;;;;;2.88;2.20;;;17.00;99.90;;;;;;5053330;28;20266;-51
2023/09/25 08:43:58;;;;;;;3.42;2.30;;;17.20;99.90;;;;;;5053262;28;20183;-52
2023/09/25 08:46:25;;;;;;;4.55;2.28;;;17.00;99.90;;;;;;5053311;28;20167;-50
2023/09/25 08:48:56;;;;;;;2.40;2.10;;;17.00;99.90;;;;;;5053539;28;20179;-51
2023/09/25 08:51:24;;;;;;;4.25;2.50;;;17.00;99.90;;;;;;5053312;28;20525;-49
2023/09/25 08:53:51;;;;;;;3.25;2.13;;;17.10;99.90;;;;;;5053173;28;20183;-53
2023/09/25 08:56:18;;;;;;;4.38;2.20;;;17.20;99.90;;;;;;5053278;28;20221;-49
2023/09/25 08:58:45;;;;;;;3.38;1.80;;;17.20;99.90;;;;;;5053153;28;20185;-51
2023/09/25 09:01:11;;;;;;;2.88;1.80;;;17.30;99.90;;;;;;5053176;28;20186;-52
2023/09/25 09:03:37;;;;;;;2.58;1.75;;;17.40;99.90;;;;;;5053445;28;20176;-52
2023/09/25 09:06:04;;;;;;;4.53;1.67;;;17.40;99.90;;;;;;5053128;28;20176;-52
2023/09/25 09:08:30;;;;;;;4.00;1.70;;;17.60;99.90;;;;;;5053054;28;20727;-49
2023/09/25 09:10:55;;;;;;;3.08;1.70;;;17.60;99.90;;;;;;5053087;28;20184;-48
2023/09/25 09:13:24;;;;;;;2.78;1.60;;;17.70;99.90;;;;;;5052962;28;20552;-53
2023/09/25 09:15:50;;;;;;;2.72;1.65;;;17.70;99.90;;;;;;5053002;28;20257;-52
2023/09/25 09:18:18;;;;;;;3.63;1.83;;;17.70;99.90;;;;;;5053038;28;20658;-50
2023/09/25 09:20:44;;;;;;;4.95;1.95;;;17.70;99.90;;;;;;5052603;28;20580;-51
2023/09/25 09:23:10;;;;;;;1.67;1.58;;;17.70;99.90;;;;;;5052984;28;20183;-52
2023/09/25 09:25:36;;;;;;;3.97;1.67;;;17.80;99.90;;;;;;5051661;28;20183;-52
2023/09/25 09:28:05;;;;;;;2.15;1.55;;;17.80;99.90;;;;;;5052951;28;20172;-53
2023/09/25 09:30:32;;;;;;;2.08;1.50;;;17.80;99.90;;;;;;5052908;28;20171;-49
2023/09/25 09:32:58;;;;;;;3.25;1.98;;;17.80;99.90;;;;;;5052838;28;20210;-49
2023/09/25 09:35:27;;;;;;;3.13;1.65;;;17.80;99.90;;;;;;5052890;28;20183;-51
2023/09/25 09:37:57;;;;;;;5.95;1.90;;;17.90;99.90;;;;;;5052808;28;20183;-52
2023/09/25 09:40:25;;;;;;;4.20;1.90;;;18.00;99.90;;;;;;5056652;28;20152;-51
2023/09/25 09:42:52;;;;;;;3.35;1.50;;;18.10;99.90;;;;;;5056562;28;20194;-51
2023/09/25 09:45:21;;;;;;;3.97;1.60;;;18.10;99.90;;;;;;5056496;28;20267;-49
2023/09/25 09:47:48;;;;;;;3.22;1.65;;;18.10;99.90;;;;;;5056469;28;20203;-51
2023/09/25 09:50:21;;;;;;;3.25;1.85;;;18.30;99.90;;;;;;5056401;28;20186;-51
2023/09/25 09:52:47;;;;;;;4.13;1.67;;;18.30;99.90;;;;;;5056361;28;20191;-48
2023/09/25 09:55:14;;;;;;;3.63;1.85;;;18.40;99.90;;;;;;5056345;28;20183;-50
2023/09/25 09:57:41;;;;;;;4.88;1.80;;;18.40;99.90;;;;;;5056550;28;20183;-52
2023/09/25 10:00:07;;;;;;;4.20;2.00;;;18.50;99.90;;;;;;5056202;28;20258;-51
2023/09/25 10:02:34;;;;;;;4.35;1.88;;;18.60;99.90;;;;;;5056126;28;20189;-53
2023/09/25 10:05:00;;;;;;;2.25;1.70;;;18.60;99.90;;;;;;5055851;28;20168;-49
2023/09/25 10:07:27;;;;;;;4.22;1.77;;;18.70;99.90;;;;;;5056026;28;20180;-50
2023/09/25 10:10:05;;;;;;;2.70;1.63;;;18.70;99.90;;;;;;5056049;28;20178;-51
2023/09/25 10:12:38;;;;;;;3.70;1.88;;;18.70;99.90;;;;;;5055962;28;20199;-51
2023/09/25 10:15:18;;;;;;;7.00;2.13;;;18.70;99.90;;;;;;5055994;28;20199;-51
2023/09/25 10:17:46;;;;;;;2.78;1.73;;;18.70;99.90;;;;;;5055711;28;20190;-51
2023/09/25 10:20:30;;;;;;;3.85;1.67;;;18.70;99.90;;;;;;5055656;28;20249;-51
2023/09/25 10:23:24;;;;;;;4.57;1.98;;;18.90;99.90;;;;;;5055789;28;20199;-53
2023/09/25 10:25:56;;;;;;;2.72;1.73;;;19.10;99.90;;;;;;5055790;28;20167;-51
2023/09/25 10:28:36;;;;;;;2.95;1.85;;;19.20;99.90;;;;;;5055352;28;20509;-53
2023/09/25 10:31:04;;;;;;;2.83;1.80;;;19.20;99.90;;;;;;5055740;28;20167;-52
2023/09/25 10:33:38;;;;;;;2.67;1.90;;;19.40;99.90;;;;;;5055469;28;20199;-51
2023/09/25 10:36:04;;;;;;;4.43;1.98;;;19.50;99.90;;;;;;5055537;28;20213;-52
2023/09/25 10:38:36;;;;;;;3.15;2.08;;;19.70;99.90;;;;;;5055507;28;20175;-53
2023/09/25 10:41:06;;;;;;;2.67;1.80;;;19.80;99.90;;;;;;5055595;28;20148;-51
2023/09/25 10:43:33;;;;;;;2.90;1.77;;;20.00;99.90;;;;;;5055380;28;20175;-52
2023/09/25 10:46:00;;;;;;;4.18;1.90;;;20.10;99.90;;;;;;5055417;28;20163;-53
2023/09/25 10:48:27;;;;;;;5.72;1.83;;;20.10;99.90;;;;;;5055326;28;20187;-52
2023/09/25 10:50:54;;;;;;;3.83;1.75;;;20.00;99.90;;;;;;5054652;28;20191;-53
2023/09/25 10:53:21;;;;;;;2.97;2.00;;;20.10;99.90;;;;;;5055118;28;20231;-51
2023/09/25 10:55:47;;;;;;;2.95;1.55;;;20.20;99.90;;;;;;5055212;28;20175;-54
2023/09/25 10:58:14;;;;;;;3.35;2.08;;;20.20;99.90;;;;;;5054885;28;20601;-53
2023/09/25 11:00:42;;;;;;;3.35;1.98;;;20.20;99.90;;;;;;5055136;28;20179;-52
2023/09/25 11:03:08;;;;;;;2.85;1.75;;;20.30;99.90;;;;;;5055088;28;20203;-53
2023/09/25 11:05:38;;;;;;;3.35;1.70;;;20.40;99.90;;;;;;5054963;28;20641;-53
2023/09/25 11:08:05;;;;;;;3.08;1.85;;;20.50;99.90;;;;;;5054963;28;20172;-53
2023/09/25 11:10:35;;;;;;;2.92;1.90;;;20.60;99.90;;;;;;5054894;28;20171;-49
2023/09/25 11:13:02;;;;;;;2.10;1.88;;;20.70;99.90;;;;;;5054804;28;20230;-50
2023/09/25 11:15:28;;;;;;;3.13;1.98;;;20.60;99.90;;;;;;5054821;28;20183;-52
2023/09/25 11:17:57;;;;;;;3.17;1.90;;;20.70;99.90;;;;;;5054768;28;20179;-52
2023/09/25 11:20:31;;;;;;;2.25;1.70;;;20.70;99.90;;;;;;5054291;28;20318;-52
2023/09/25 11:23:09;;;;;;;3.25;1.90;;;20.80;99.90;;;;;;5054686;28;20179;-51
2023/09/25 11:25:46;;;;;;;3.22;1.80;;;20.70;99.90;;;;;;5054587;28;20159;-52
2023/09/25 11:28:20;;;;;;;3.60;2.20;;;20.70;99.90;;;;;;5054563;28;20160;-49
2023/09/25 11:30:47;;;;;;;3.70;1.95;;;20.70;99.90;;;;;;5054627;28;20167;-53
2023/09/25 11:33:18;;;;;;;3.72;1.88;;;20.70;99.90;;;;;;5054587;28;20260;-50
2023/09/25 11:35:45;;;;;;;3.65;2.05;;;20.80;99.90;;;;;;5054505;28;20170;-53
2023/09/25 11:38:21;;;;;;;3.80;1.95;;;20.80;99.90;;;;;;5054345;28;20172;-51
2023/09/25 11:40:49;;;;;;;3.33;1.95;;;20.90;99.90;;;;;;5054286;28;20179;-51
2023/09/25 11:43:15;;;;;;;3.03;1.70;;;21.00;99.90;;;;;;5054186;28;20636;-52
2023/09/25 11:45:42;;;;;;;3.58;2.13;;;21.00;99.90;;;;;;5054129;28;20178;-49
2023/09/25 11:48:18;;;;;;;2.80;2.10;;;21.00;99.90;;;;;;5054271;28;20628;-51
2023/09/25 11:50:44;;;;;;;3.15;1.70;;;21.20;99.90;;;;;;5054179;28;20250;-49
2023/09/25 11:53:09;;;;;;;2.80;1.75;;;21.20;99.90;;;;;;5053766;28;20293;-52
2023/09/25 11:55:36;;;;;;;4.03;1.90;;;21.10;99.90;;;;;;5054051;28;20244;-50
2023/09/25 11:58:05;;;;;;;3.03;1.90;;;21.10;99.90;;;;;;5053699;28;20535;-51
2023/09/25 12:00:31;;;;;;;1.77;1.65;;;21.10;99.90;;;;;;5054016;28;20167;-52
2023/09/25 12:02:58;;;;;;;3.30;2.00;;;21.20;99.90;;;;;;5052812;28;20183;-50
2023/09/25 12:05:24;;;;;;;2.70;1.90;;;21.20;99.90;;;;;;5053825;28;20190;-50
2023/09/25 12:07:51;;;;;;;2.97;1.95;;;21.10;99.90;;;;;;5053883;28;20175;-53
2023/09/25 12:10:17;;;;;;;2.58;1.92;;;21.10;99.90;;;;;;5053753;28;20183;-53
2023/09/25 12:12:44;;;;;;;3.05;1.85;;;21.10;99.90;;;;;;5053682;28;20195;-50
2023/09/25 12:15:12;;;;;;;4.45;2.33;;;21.10;99.90;;;;;;5053484;28;20172;-48
2023/09/25 12:17:39;;;;;;;3.83;2.22;;;21.00;99.90;;;;;;5053411;28;20222;-53
2023/09/25 12:20:07;;;;;;;2.83;2.25;;;21.10;99.90;;;;;;5053549;28;20230;-48
2023/09/25 12:22:33;;;;;;;4.03;1.98;;;20.90;99.90;;;;;;5053644;28;20171;-51
2023/09/25 12:24:59;;;;;;;4.35;1.88;;;21.00;99.90;;;;;;5053524;28;20521;-49
2023/09/25 12:27:24;;;;;;;2.88;2.03;;;21.20;99.90;;;;;;5053552;28;20175;-48
2023/09/25 12:29:50;;;;;;;4.78;2.00;;;21.30;99.90;;;;;;5053688;28;20171;-51
2023/09/25 12:32:16;;;;;;;2.95;1.98;;;21.50;99.90;;;;;;5053454;28;20195;-52
2023/09/25 12:34:41;;;;;;;4.30;2.10;;;21.70;99.90;;;;;;5053494;28;20655;-50
2023/09/25 12:37:07;;;;;;;3.38;2.05;;;21.70;99.90;;;;;;5053463;28;20518;-49
2023/09/25 12:39:36;;;;;;;5.05;2.10;;;21.70;99.90;;;;;;5053256;28;20704;-50
2023/09/25 12:42:02;;;;;;;3.85;2.10;;;21.70;99.90;;;;;;5053412;28;20286;-50
2023/09/25 12:44:27;;;;;;;5.63;2.10;;;21.70;99.90;;;;;;5053375;28;20632;-50
2023/09/25 12:46:53;;;;;;;5.47;2.35;;;21.60;99.90;;;;;;5053571;28;20179;-53